Time;durP1;ratioP1;P1;durP2;ratioP2;P2;SDS_P1;SDS_P2;PMS_P1;PMS_P2;Temp;Humidity;BMP_temperature;BMP_pressure;BME280_temperature;BME280_humidity;BME280_pressure;Samples;Min_cycle;Max_cycle;Signal;HPM_P1;HPM_P2
2023/12/23 00:00:05;;;;;;;16.30;2.90;;;3.90;78.60;;;;;;5029590;28;20073;-76
2023/12/23 00:02:30;;;;;;;16.70;2.40;;;3.90;78.90;;;;;;5028157;28;20685;-76
2023/12/23 00:04:56;;;;;;;15.93;2.97;;;3.80;78.60;;;;;;5028517;28;20044;-76
2023/12/23 00:07:22;;;;;;;14.97;2.93;;;3.70;78.60;;;;;;5026873;28;20069;-76
2023/12/23 00:09:47;;;;;;;19.60;2.87;;;3.70;78.70;;;;;;5020376;28;20045;-76
2023/12/23 00:12:13;;;;;;;22.77;3.20;;;3.70;79.00;;;;;;5028182;28;20054;-75
2023/12/23 00:14:38;;;;;;;19.50;3.73;;;3.70;79.00;;;;;;5011645;28;20053;-75
2023/12/23 00:17:04;;;;;;;28.03;4.17;;;3.60;79.30;;;;;;5019022;28;20618;-76
2023/12/23 00:19:30;;;;;;;23.90;3.50;;;3.60;79.40;;;;;;5025852;28;20049;-75
2023/12/23 00:21:56;;;;;;;24.10;4.03;;;3.60;79.50;;;;;;5028964;28;20049;-76
2023/12/23 00:24:23;;;;;;;24.67;4.23;;;3.60;79.60;;;;;;5028870;28;20515;-75
2023/12/23 00:26:49;;;;;;;23.80;4.20;;;3.60;79.60;;;;;;5028621;28;20048;-75
2023/12/23 00:29:15;;;;;;;26.87;5.20;;;3.60;79.80;;;;;;5019602;28;20400;-75
2023/12/23 00:31:41;;;;;;;31.90;5.60;;;3.60;79.90;;;;;;5029164;28;20194;-76
2023/12/23 00:34:06;;;;;;;33.73;6.13;;;3.60;80.10;;;;;;5029522;28;20567;-76
2023/12/23 00:36:32;;;;;;;36.70;6.07;;;3.60;80.20;;;;;;5042843;28;20081;-75
2023/12/23 00:38:58;;;;;;;35.33;5.87;;;3.70;80.20;;;;;;5029354;28;20042;-75
2023/12/23 00:41:26;;;;;;;39.23;5.93;;;3.70;80.20;;;;;;5027678;28;20050;-75
2023/12/23 00:43:52;;;;;;;40.70;6.57;;;3.70;80.10;;;;;;5023591;28;20471;-76
2023/12/23 00:46:18;;;;;;;40.77;5.90;;;3.80;80.30;;;;;;5028213;28;20060;-75
2023/12/23 00:48:43;;;;;;;32.97;5.33;;;3.90;80.20;;;;;;5028966;28;20054;-75
2023/12/23 00:51:09;;;;;;;29.47;5.63;;;3.90;80.30;;;;;;5028574;28;20049;-76
2023/12/23 00:53:35;;;;;;;36.13;5.87;;;3.90;80.40;;;;;;5028075;28;20121;-75
2023/12/23 00:56:00;;;;;;;39.33;6.10;;;3.90;80.50;;;;;;5027638;28;20053;-76
2023/12/23 00:58:26;;;;;;;35.13;5.73;;;3.90;80.50;;;;;;5028499;28;20076;-75
2023/12/23 01:00:52;;;;;;;39.27;6.67;;;3.90;80.70;;;;;;5009958;28;20054;-75
2023/12/23 01:03:17;;;;;;;31.10;5.47;;;3.90;80.70;;;;;;5024466;28;20408;-76
2023/12/23 01:05:43;;;;;;;31.40;5.50;;;4.00;80.90;;;;;;5028703;28;20056;-75
2023/12/23 01:08:09;;;;;;;33.50;5.47;;;4.00;80.80;;;;;;5027636;28;20065;-76
2023/12/23 01:10:34;;;;;;;33.67;5.50;;;4.00;80.80;;;;;;5027595;28;20042;-77
2023/12/23 01:13:00;;;;;;;32.30;4.57;;;4.00;80.70;;;;;;5028734;28;20041;-76
2023/12/23 01:15:26;;;;;;;35.57;5.07;;;4.10;80.40;;;;;;5027434;28;20046;-76
2023/12/23 01:17:51;;;;;;;33.17;4.87;;;4.20;79.90;;;;;;5028524;28;20492;-76
2023/12/23 01:20:17;;;;;;;27.77;5.07;;;4.30;79.70;;;;;;5027898;28;20045;-77
2023/12/23 01:22:43;;;;;;;28.37;4.57;;;4.40;79.20;;;;;;5011132;28;20133;-76
2023/12/23 01:25:09;;;;;;;24.03;4.60;;;4.40;79.20;;;;;;5027973;28;20045;-77
2023/12/23 01:27:34;;;;;;;26.80;4.53;;;4.50;78.70;;;;;;5016576;28;20115;-76
2023/12/23 01:30:00;;;;;;;26.50;4.33;;;4.50;78.10;;;;;;5028544;28;20496;-76
2023/12/23 01:32:26;;;;;;;22.00;3.87;;;4.70;77.50;;;;;;5027177;28;20054;-75
2023/12/23 01:34:51;;;;;;;15.77;3.13;;;4.70;77.70;;;;;;5028715;28;20499;-77
2023/12/23 01:37:17;;;;;;;26.13;3.83;;;4.70;77.70;;;;;;5013467;28;20049;-75
2023/12/23 01:39:42;;;;;;;21.43;3.80;;;4.70;77.40;;;;;;5008363;28;20069;-76
2023/12/23 01:42:08;;;;;;;22.37;3.50;;;4.80;76.90;;;;;;5014711;28;20053;-76
2023/12/23 01:44:34;;;;;;;25.43;4.00;;;4.80;77.00;;;;;;5024575;28;20049;-76
2023/12/23 01:47:02;;;;;;;24.37;4.10;;;4.90;76.70;;;;;;5009771;28;20473;-77
2023/12/23 01:49:29;;;;;;;23.67;4.47;;;4.90;76.80;;;;;;5027741;28;20050;-76
2023/12/23 01:51:57;;;;;;;16.33;3.30;;;4.90;76.80;;;;;;5027231;28;20053;-76
2023/12/23 01:54:23;;;;;;;20.87;3.47;;;4.90;76.70;;;;;;5039364;28;20497;-76
2023/12/23 01:56:50;;;;;;;15.40;2.77;;;4.90;76.80;;;;;;5008444;28;20478;-76
2023/12/23 01:59:19;;;;;;;19.37;3.30;;;4.90;76.20;;;;;;5012521;28;20102;-76
2023/12/23 02:01:45;;;;;;;18.93;2.73;;;4.90;75.70;;;;;;5027236;28;20779;-77
2023/12/23 02:04:11;;;;;;;15.90;2.77;;;5.00;75.50;;;;;;5027145;28;20046;-77
2023/12/23 02:06:37;;;;;;;18.40;2.73;;;5.00;75.20;;;;;;5027157;28;20496;-77
2023/12/23 02:09:03;;;;;;;18.57;2.67;;;5.00;75.10;;;;;;5027257;28;20049;-76
2023/12/23 02:11:36;;;;;;;12.80;2.70;;;5.00;75.40;;;;;;5027198;28;20057;-76
2023/12/23 02:14:08;;;;;;;14.37;2.57;;;5.00;75.70;;;;;;5027467;28;20050;-76
2023/12/23 02:16:35;;;;;;;17.13;2.80;;;4.90;75.90;;;;;;5025783;28;20041;-76
2023/12/23 02:19:01;;;;;;;19.63;3.43;;;4.90;76.40;;;;;;5026098;28;20103;-76
2023/12/23 02:21:27;;;;;;;19.03;3.83;;;4.90;76.80;;;;;;5024970;28;20337;-76
2023/12/23 02:23:52;;;;;;;19.43;3.37;;;4.90;76.90;;;;;;5026628;28;20061;-75
2023/12/23 02:26:19;;;;;;;21.37;3.93;;;4.90;77.10;;;;;;5025033;28;20489;-76
2023/12/23 02:28:51;;;;;;;23.87;3.80;;;4.90;77.40;;;;;;5010748;28;20111;-76
2023/12/23 02:31:21;;;;;;;19.13;3.90;;;4.90;77.80;;;;;;5025714;28;20053;-76
2023/12/23 02:33:49;;;;;;;25.73;3.60;;;4.80;78.20;;;;;;5025784;28;20048;-76
2023/12/23 02:36:22;;;;;;;25.03;3.73;;;4.90;78.50;;;;;;5025362;28;20045;-77
2023/12/23 02:38:49;;;;;;;24.50;4.40;;;4.80;78.80;;;;;;5026753;28;20049;-77
2023/12/23 02:41:15;;;;;;;18.10;2.97;;;4.90;79.20;;;;;;5022596;28;20409;-77
2023/12/23 02:43:40;;;;;;;16.93;3.23;;;4.80;79.20;;;;;;5016437;28;20063;-76
2023/12/23 02:46:06;;;;;;;22.77;3.60;;;4.80;79.50;;;;;;5026478;28;20420;-77
2023/12/23 02:48:33;;;;;;;26.67;3.10;;;4.70;79.70;;;;;;5025662;28;20105;-76
2023/12/23 02:50:58;;;;;;;20.43;3.00;;;4.70;80.00;;;;;;5025917;28;20053;-78
2023/12/23 02:53:24;;;;;;;14.80;3.00;;;4.70;80.00;;;;;;5023995;28;20059;-77
2023/12/23 02:55:50;;;;;;;17.87;2.93;;;4.70;80.40;;;;;;5025350;28;20065;-77
2023/12/23 02:58:15;;;;;;;20.37;3.23;;;4.60;80.70;;;;;;5026520;28;20444;-76
2023/12/23 03:00:41;;;;;;;24.33;3.43;;;4.50;80.90;;;;;;5008836;28;20132;-77
2023/12/23 03:03:07;;;;;;;18.23;3.87;;;4.50;81.60;;;;;;5025527;28;20063;-76
2023/12/23 03:05:32;;;;;;;23.00;3.70;;;4.50;81.90;;;;;;5024973;28;20053;-77
2023/12/23 03:07:58;;;;;;;21.50;3.63;;;4.50;82.10;;;;;;5025755;28;20045;-77
2023/12/23 03:10:24;;;;;;;21.00;3.30;;;4.50;82.30;;;;;;5025152;28;20050;-78
2023/12/23 03:12:50;;;;;;;22.57;3.07;;;4.40;82.80;;;;;;5026621;28;20057;-76
2023/12/23 03:15:16;;;;;;;19.47;3.40;;;4.40;82.80;;;;;;5025412;28;20497;-77
2023/12/23 03:17:41;;;;;;;25.60;2.80;;;4.40;83.00;;;;;;5026432;28;20056;-77
2023/12/23 03:20:08;;;;;;;19.57;3.47;;;4.40;83.10;;;;;;5024688;28;20408;-77
2023/12/23 03:22:34;;;;;;;17.80;2.73;;;4.40;83.20;;;;;;5026547;28;20059;-77
2023/12/23 03:24:59;;;;;;;17.40;2.93;;;4.30;83.30;;;;;;5025958;28;20057;-77
2023/12/23 03:27:25;;;;;;;14.83;2.80;;;4.30;83.20;;;;;;5025151;28;20080;-77
2023/12/23 03:29:51;;;;;;;22.17;3.10;;;4.30;83.20;;;;;;5017179;28;20052;-77
2023/12/23 03:32:17;;;;;;;14.33;2.03;;;4.30;83.20;;;;;;5022660;28;20437;-77
2023/12/23 03:34:43;;;;;;;21.23;2.80;;;4.30;83.50;;;;;;5015797;28;20116;-77
2023/12/23 03:37:09;;;;;;;20.53;2.93;;;4.30;83.60;;;;;;5026178;28;20053;-77
2023/12/23 03:39:35;;;;;;;14.70;2.20;;;4.30;83.60;;;;;;5025969;28;20137;-77
2023/12/23 03:42:00;;;;;;;18.30;2.67;;;4.30;83.80;;;;;;5003139;28;20120;-77
2023/12/23 03:44:26;;;;;;;20.47;2.63;;;4.20;83.90;;;;;;5025926;28;20150;-77
2023/12/23 03:46:52;;;;;;;14.73;2.13;;;4.20;84.00;;;;;;5025506;28;20053;-76
2023/12/23 03:49:17;;;;;;;19.40;2.17;;;4.20;84.00;;;;;;5025980;28;20492;-77
2023/12/23 03:51:43;;;;;;;23.87;2.60;;;4.20;84.10;;;;;;5025845;28;20136;-77
2023/12/23 03:54:09;;;;;;;16.77;2.03;;;4.20;84.20;;;;;;5018028;28;20059;-76
2023/12/23 03:56:34;;;;;;;25.60;2.83;;;4.20;84.10;;;;;;5025388;28;20100;-77
2023/12/23 03:59:00;;;;;;;14.10;2.17;;;4.20;84.40;;;;;;5025870;28;20045;-77
2023/12/23 04:01:26;;;;;;;24.57;2.47;;;4.10;84.50;;;;;;5025134;28;20049;-76
2023/12/23 04:03:52;;;;;;;19.07;2.27;;;4.20;84.70;;;;;;5025355;28;20045;-76
2023/12/23 04:06:17;;;;;;;17.93;2.07;;;4.10;84.60;;;;;;5025560;28;20064;-76
2023/12/23 04:08:43;;;;;;;21.57;2.40;;;4.10;84.70;;;;;;5025835;28;20050;-76
2023/12/23 04:11:09;;;;;;;18.10;2.30;;;4.20;84.60;;;;;;5024632;28;20100;-76
2023/12/23 04:13:36;;;;;;;17.90;2.50;;;4.10;84.80;;;;;;5025909;28;20132;-76
2023/12/23 04:16:03;;;;;;;22.53;2.90;;;4.10;84.70;;;;;;5040829;28;20689;-76
2023/12/23 04:18:29;;;;;;;19.17;2.77;;;4.10;84.70;;;;;;5024512;28;20041;-76
2023/12/23 04:20:55;;;;;;;18.23;2.53;;;4.10;84.80;;;;;;5025605;28;20457;-76
2023/12/23 04:23:20;;;;;;;13.80;2.20;;;4.10;84.70;;;;;;5024942;28;20545;-76
2023/12/23 04:25:46;;;;;;;17.60;2.40;;;4.10;84.60;;;;;;5025032;28;20532;-76
2023/12/23 04:28:12;;;;;;;19.83;2.60;;;4.10;84.70;;;;;;5020661;28;20417;-75
2023/12/23 04:30:38;;;;;;;12.80;1.80;;;4.10;84.70;;;;;;5006106;28;20100;-76
2023/12/23 04:33:04;;;;;;;18.17;2.40;;;4.10;84.60;;;;;;5010260;28;20057;-76
2023/12/23 04:35:30;;;;;;;20.40;2.53;;;4.10;84.50;;;;;;5023687;28;20050;-76
2023/12/23 04:37:55;;;;;;;20.63;2.70;;;4.10;84.40;;;;;;5028838;28;20484;-76
2023/12/23 04:40:21;;;;;;;18.80;2.07;;;4.10;84.50;;;;;;5028500;28;20042;-76
2023/12/23 04:42:47;;;;;;;15.63;2.23;;;4.10;84.50;;;;;;5022099;28;20081;-76
2023/12/23 04:45:12;;;;;;;10.90;2.23;;;4.10;84.40;;;;;;5028418;28;20051;-75
2023/12/23 04:47:38;;;;;;;13.50;2.50;;;4.10;84.40;;;;;;5027811;28;20436;-75
2023/12/23 04:50:05;;;;;;;12.63;2.23;;;4.10;84.40;;;;;;5028417;28;20053;-75
2023/12/23 04:52:31;;;;;;;12.40;2.40;;;4.10;84.40;;;;;;5028975;28;20520;-76
2023/12/23 04:54:59;;;;;;;10.63;2.27;;;4.00;84.30;;;;;;5029118;28;20092;-76
2023/12/23 04:57:26;;;;;;;15.33;2.20;;;4.10;84.40;;;;;;5028280;28;20513;-76
2023/12/23 04:59:51;;;;;;;12.90;2.13;;;4.00;84.40;;;;;;5029119;28;20073;-76
2023/12/23 05:02:17;;;;;;;31.27;2.70;;;4.00;84.40;;;;;;5027160;28;20199;-76
2023/12/23 05:04:46;;;;;;;25.70;2.90;;;4.00;84.50;;;;;;5028836;28;20053;-76
2023/12/23 05:07:12;;;;;;;18.77;2.30;;;4.10;84.50;;;;;;5028803;28;20507;-76
2023/12/23 05:09:37;;;;;;;16.80;2.00;;;4.00;84.70;;;;;;5012522;28;20056;-76
2023/12/23 05:12:03;;;;;;;12.70;2.07;;;4.10;84.60;;;;;;5028215;28;20053;-76
2023/12/23 05:14:29;;;;;;;21.13;2.37;;;4.10;84.60;;;;;;5028832;28;20057;-76
2023/12/23 05:16:54;;;;;;;18.47;2.63;;;4.00;84.70;;;;;;5027559;28;20591;-76
2023/12/23 05:19:20;;;;;;;23.40;3.10;;;4.10;84.80;;;;;;5028463;28;20045;-76
2023/12/23 05:21:46;;;;;;;35.97;12.17;;;4.10;84.80;;;;;;5028328;28;20056;-75
2023/12/23 05:24:12;;;;;;;17.17;4.57;;;4.10;84.80;;;;;;5029056;28;20363;-76
2023/12/23 05:26:38;;;;;;;24.63;6.20;;;4.10;84.80;;;;;;5021739;28;20053;-75
2023/12/23 05:29:04;;;;;;;19.77;6.90;;;4.10;84.90;;;;;;5018982;28;20057;-76
2023/12/23 05:31:29;;;;;;;22.77;5.50;;;4.10;85.00;;;;;;5026791;28;20073;-76
2023/12/23 05:33:56;;;;;;;22.03;4.13;;;4.10;84.90;;;;;;5028343;28;20408;-76
2023/12/23 05:36:22;;;;;;;25.63;2.77;;;4.00;84.90;;;;;;5027469;28;20413;-75
2023/12/23 05:38:48;;;;;;;12.50;2.23;;;4.00;85.00;;;;;;5027095;28;20046;-76
2023/12/23 05:41:14;;;;;;;22.07;3.77;;;4.00;85.00;;;;;;5024703;28;20484;-72
2023/12/23 05:43:39;;;;;;;21.03;3.40;;;4.00;85.00;;;;;;5021219;28;20049;-76
2023/12/23 05:46:05;;;;;;;18.80;4.10;;;4.00;85.00;;;;;;5027635;28;20076;-76
2023/12/23 05:48:31;;;;;;;19.40;3.70;;;4.00;85.00;;;;;;5024988;28;20128;-75
2023/12/23 05:50:57;;;;;;;23.10;4.00;;;4.00;85.10;;;;;;5025093;28;20473;-76
2023/12/23 05:53:22;;;;;;;11.70;2.30;;;4.00;85.10;;;;;;5024559;28;20057;-75
2023/12/23 05:55:48;;;;;;;13.77;2.93;;;4.00;85.10;;;;;;5023987;28;20052;-75
2023/12/23 05:58:14;;;;;;;11.40;2.40;;;4.00;85.10;;;;;;5024917;28;20045;-73
2023/12/23 06:00:39;;;;;;;14.60;2.37;;;4.00;85.20;;;;;;5024489;28;20091;-76
2023/12/23 06:03:05;;;;;;;14.60;4.97;;;4.00;85.20;;;;;;5025170;28;20076;-76
2023/12/23 06:05:31;;;;;;;14.97;3.43;;;4.00;85.20;;;;;;5024580;28;20060;-76
2023/12/23 06:07:58;;;;;;;15.60;2.87;;;4.00;85.20;;;;;;5025778;28;20060;-76
2023/12/23 06:10:23;;;;;;;9.47;1.83;;;4.00;85.20;;;;;;5025807;28;20108;-75
2023/12/23 06:12:50;;;;;;;9.23;1.97;;;4.00;85.20;;;;;;5007575;28;20054;-76
2023/12/23 06:15:15;;;;;;;12.30;1.80;;;4.00;85.20;;;;;;5007091;28;20054;-75
2023/12/23 06:17:41;;;;;;;11.23;1.87;;;4.00;85.20;;;;;;5027453;28;20041;-76
2023/12/23 06:20:07;;;;;;;12.67;2.30;;;3.90;85.20;;;;;;5041311;28;20053;-76
2023/12/23 06:22:33;;;;;;;12.50;1.90;;;4.00;85.20;;;;;;5026826;28;20057;-76
2023/12/23 06:24:59;;;;;;;16.30;2.57;;;3.90;85.30;;;;;;5025739;28;20052;-76
2023/12/23 06:27:24;;;;;;;10.83;1.97;;;3.90;85.20;;;;;;5022108;28;20077;-76
2023/12/23 06:29:50;;;;;;;11.23;1.73;;;3.90;85.30;;;;;;5025212;28;20049;-76
2023/12/23 06:32:16;;;;;;;12.90;2.17;;;3.90;85.30;;;;;;5022592;28;20115;-76
2023/12/23 06:34:41;;;;;;;8.23;1.70;;;3.90;85.30;;;;;;5022930;28;20080;-76
2023/12/23 06:37:07;;;;;;;6.17;1.30;;;3.90;85.30;;;;;;5027692;28;20064;-76
2023/12/23 06:39:32;;;;;;;4.43;0.90;;;3.90;85.20;;;;;;5028250;28;20379;-76
2023/12/23 06:41:58;;;;;;;5.93;1.00;;;3.80;85.20;;;;;;5033800;28;20053;-76
2023/12/23 06:44:24;;;;;;;5.93;0.70;;;3.80;85.10;;;;;;5025321;28;20057;-75
2023/12/23 06:46:51;;;;;;;4.50;0.70;;;3.70;85.10;;;;;;5025331;28;20034;-76
2023/12/23 06:49:17;;;;;;;7.70;0.80;;;3.70;85.10;;;;;;5026129;28;20324;-75
2023/12/23 06:51:43;;;;;;;6.83;0.30;;;3.70;85.20;;;;;;5024932;28;20096;-75
2023/12/23 06:54:09;;;;;;;3.83;0.40;;;3.60;85.10;;;;;;5026978;28;20053;-76
2023/12/23 06:56:34;;;;;;;3.60;0.50;;;3.60;85.20;;;;;;5026313;28;20041;-75
2023/12/23 06:59:01;;;;;;;8.33;0.60;;;3.60;85.20;;;;;;5026376;28;20046;-76
2023/12/23 07:01:37;;;;;;;2.63;0.30;;;3.60;85.20;;;;;;5025324;28;20080;-76
2023/12/23 07:04:02;;;;;;;4.70;0.60;;;3.60;85.20;;;;;;5026539;28;20056;-76
2023/12/23 07:06:28;;;;;;;6.47;0.73;;;3.60;85.30;;;;;;5026053;28;20134;-75
2023/12/23 07:08:54;;;;;;;8.63;1.10;;;3.60;85.30;;;;;;5042667;28;20045;-76
2023/12/23 07:11:19;;;;;;;6.83;0.77;;;3.60;85.20;;;;;;5012436;28;20038;-75
2023/12/23 07:13:45;;;;;;;3.83;0.70;;;3.60;85.20;;;;;;5007145;28;20046;-76
2023/12/23 07:16:11;;;;;;;6.30;0.70;;;3.60;85.30;;;;;;5004707;28;20046;-76
2023/12/23 07:18:36;;;;;;;6.40;0.90;;;3.60;85.20;;;;;;5020531;28;20080;-76
2023/12/23 07:21:02;;;;;;;6.60;0.77;;;3.60;85.30;;;;;;5025614;28;20055;-76
2023/12/23 07:23:28;;;;;;;2.53;0.53;;;3.60;85.20;;;;;;5025962;28;20493;-76
2023/12/23 07:25:54;;;;;;;7.53;0.90;;;3.60;85.30;;;;;;5010825;28;20049;-76
2023/12/23 07:28:19;;;;;;;3.10;0.73;;;3.60;85.40;;;;;;5006494;28;20489;-75
2023/12/23 07:30:45;;;;;;;5.77;0.60;;;3.60;85.40;;;;;;5004978;28;20053;-76
2023/12/23 07:33:13;;;;;;;5.43;0.50;;;3.60;85.40;;;;;;5006578;28;20524;-76
2023/12/23 07:35:39;;;;;;;4.80;0.60;;;3.60;85.40;;;;;;5016557;28;20053;-76
2023/12/23 07:38:05;;;;;;;5.33;0.70;;;3.60;85.40;;;;;;5025906;28;20072;-76
2023/12/23 07:40:31;;;;;;;3.43;0.70;;;3.60;85.40;;;;;;5025951;28;20053;-76
2023/12/23 07:42:58;;;;;;;6.63;0.90;;;3.60;85.50;;;;;;5019341;28;20052;-76
2023/12/23 07:45:24;;;;;;;2.70;0.83;;;3.60;85.40;;;;;;5024122;28;20037;-76
2023/12/23 07:47:49;;;;;;;2.47;0.50;;;3.60;85.40;;;;;;5026439;28;20077;-76
2023/12/23 07:50:15;;;;;;;2.60;0.90;;;3.60;85.50;;;;;;5024983;28;20037;-75
2023/12/23 07:52:41;;;;;;;6.30;1.60;;;3.60;85.50;;;;;;5041718;28;20481;-76
2023/12/23 07:55:07;;;;;;;6.27;1.00;;;3.60;85.50;;;;;;5025962;28;20046;-76
2023/12/23 07:57:33;;;;;;;5.47;1.40;;;3.60;85.50;;;;;;5025392;28;20060;-76
2023/12/23 07:59:58;;;;;;;4.10;1.13;;;3.60;85.50;;;;;;5025264;28;20693;-76
2023/12/23 08:02:24;;;;;;;5.13;1.53;;;3.60;85.50;;;;;;5024369;28;20049;-76
2023/12/23 08:04:50;;;;;;;3.47;1.17;;;3.60;85.60;;;;;;5022382;28;20053;-76
2023/12/23 08:07:15;;;;;;;5.40;1.30;;;3.60;85.70;;;;;;5028461;28;20046;-75
2023/12/23 08:09:41;;;;;;;4.87;1.23;;;3.70;85.60;;;;;;5030195;28;20540;-76
2023/12/23 08:12:08;;;;;;;5.90;1.50;;;3.70;85.60;;;;;;5026545;28;20508;-76
2023/12/23 08:14:33;;;;;;;6.40;1.93;;;3.70;85.70;;;;;;5028113;28;20523;-76
2023/12/23 08:16:59;;;;;;;5.70;2.03;;;3.70;85.70;;;;;;5028282;28;20046;-76
2023/12/23 08:19:25;;;;;;;8.07;2.50;;;3.70;85.80;;;;;;5026280;28;20084;-76
2023/12/23 08:21:51;;;;;;;6.17;2.30;;;3.70;85.80;;;;;;5028575;28;20481;-76
2023/12/23 08:24:16;;;;;;;6.23;2.33;;;3.70;85.70;;;;;;5027447;28;20041;-75
2023/12/23 08:26:42;;;;;;;6.73;2.23;;;3.70;85.80;;;;;;5026733;28;20092;-76
2023/12/23 08:29:08;;;;;;;5.77;2.40;;;3.70;85.80;;;;;;5027519;28;20045;-76
2023/12/23 08:31:34;;;;;;;6.10;2.40;;;3.70;85.80;;;;;;5027674;28;20089;-76
2023/12/23 08:33:59;;;;;;;7.50;2.70;;;3.70;85.70;;;;;;5028438;28;20041;-76
2023/12/23 08:36:25;;;;;;;3.03;1.37;;;3.70;85.80;;;;;;5024952;28;20057;-76
2023/12/23 08:38:52;;;;;;;2.40;1.10;;;3.70;85.90;;;;;;5028285;28;20322;-76
2023/12/23 08:41:17;;;;;;;5.27;1.47;;;3.70;85.80;;;;;;5024857;28;20049;-76
2023/12/23 08:43:43;;;;;;;5.10;2.13;;;3.70;85.90;;;;;;5026779;28;20057;-76
2023/12/23 08:46:09;;;;;;;9.20;4.23;;;3.70;85.90;;;;;;5028210;28;20041;-76
2023/12/23 08:48:34;;;;;;;8.33;3.70;;;3.70;85.90;;;;;;5025255;28;20041;-76
2023/12/23 08:51:00;;;;;;;8.20;3.73;;;3.80;86.00;;;;;;5028300;28;20049;-76
2023/12/23 08:53:26;;;;;;;7.97;3.17;;;3.80;86.00;;;;;;5025164;28;20120;-76
2023/12/23 08:55:51;;;;;;;6.63;1.90;;;3.90;86.00;;;;;;5027444;28;20056;-76
2023/12/23 08:58:18;;;;;;;6.17;2.00;;;3.90;86.00;;;;;;5027596;28;20048;-76
2023/12/23 09:00:43;;;;;;;5.30;1.40;;;3.90;85.90;;;;;;5024436;28;20044;-76
2023/12/23 09:03:09;;;;;;;2.63;0.83;;;3.90;85.90;;;;;;5028255;28;20041;-76
2023/12/23 09:05:35;;;;;;;2.33;0.70;;;3.90;86.00;;;;;;5027662;28;20045;-76
2023/12/23 09:08:00;;;;;;;2.77;0.70;;;3.90;86.00;;;;;;5027598;28;20420;-76
2023/12/23 09:10:26;;;;;;;2.40;0.77;;;3.90;86.10;;;;;;5023884;28;20045;-76
2023/12/23 09:12:51;;;;;;;2.30;0.47;;;3.90;86.00;;;;;;5025550;28;20045;-76
2023/12/23 09:15:18;;;;;;;1.40;0.53;;;3.90;86.00;;;;;;5024627;28;20500;-76
2023/12/23 09:17:43;;;;;;;1.70;0.40;;;3.90;86.10;;;;;;5024310;28;20045;-76
2023/12/23 09:20:10;;;;;;;2.13;0.70;;;4.00;86.00;;;;;;5025956;28;20476;-76
2023/12/23 09:22:36;;;;;;;3.60;1.03;;;3.90;86.10;;;;;;5025213;28;20052;-76
2023/12/23 09:25:02;;;;;;;1.70;0.60;;;3.90;86.10;;;;;;5024343;28;20077;-76
2023/12/23 09:27:28;;;;;;;2.57;0.90;;;4.00;86.10;;;;;;5023745;28;20057;-76
2023/12/23 09:29:55;;;;;;;2.77;1.20;;;4.00;86.20;;;;;;5019166;28;20651;-76
2023/12/23 09:32:21;;;;;;;5.40;2.77;;;4.00;86.10;;;;;;5024924;28;20076;-76
2023/12/23 09:34:49;;;;;;;6.33;4.10;;;4.00;86.10;;;;;;5025174;28;20096;-76
2023/12/23 09:37:15;;;;;;;7.83;3.67;;;4.00;86.20;;;;;;5025400;28;20505;-76
2023/12/23 09:39:41;;;;;;;7.80;3.00;;;4.00;86.10;;;;;;5024689;28;20152;-76
2023/12/23 09:42:06;;;;;;;6.10;3.30;;;4.00;86.20;;;;;;5022016;28;20132;-76
2023/12/23 09:44:32;;;;;;;5.07;2.47;;;4.00;86.30;;;;;;5022922;28;20513;-75
2023/12/23 09:46:58;;;;;;;4.90;2.33;;;4.00;86.20;;;;;;5024160;28;20147;-76
2023/12/23 09:49:24;;;;;;;7.03;2.30;;;4.00;86.20;;;;;;5024677;28;20049;-76
2023/12/23 09:51:50;;;;;;;6.37;2.40;;;4.00;86.30;;;;;;5024952;28;20510;-76
2023/12/23 09:54:20;;;;;;;3.23;1.20;;;4.10;86.20;;;;;;5024922;28;20057;-76
2023/12/23 09:56:48;;;;;;;3.37;1.50;;;4.10;86.30;;;;;;5012227;28;20053;-76
2023/12/23 09:59:14;;;;;;;3.37;1.50;;;4.10;86.30;;;;;;4998992;28;20058;-76
2023/12/23 10:01:40;;;;;;;4.37;1.67;;;4.10;86.30;;;;;;5017692;28;20049;-76
2023/12/23 10:04:05;;;;;;;2.60;1.40;;;4.10;86.30;;;;;;5025679;28;20053;-76
2023/12/23 10:06:31;;;;;;;2.97;1.30;;;4.10;86.20;;;;;;5024314;28;20045;-75
2023/12/23 10:08:57;;;;;;;2.30;1.20;;;4.10;86.40;;;;;;5023488;28;20425;-75
2023/12/23 10:11:24;;;;;;;2.57;1.10;;;4.10;86.40;;;;;;5012453;28;20097;-75
2023/12/23 10:13:51;;;;;;;1.87;1.20;;;4.10;86.30;;;;;;5023244;28;20046;-75
2023/12/23 10:16:17;;;;;;;4.27;1.60;;;4.10;86.30;;;;;;5022808;28;20084;-75
2023/12/23 10:18:46;;;;;;;4.17;1.50;;;4.10;86.30;;;;;;5023038;28;20124;-75
2023/12/23 10:21:11;;;;;;;6.70;2.30;;;4.20;86.40;;;;;;5021563;28;20132;-75
2023/12/23 10:23:37;;;;;;;7.30;2.60;;;4.20;86.40;;;;;;5022974;28;20132;-75
2023/12/23 10:26:03;;;;;;;5.27;2.17;;;4.20;86.40;;;;;;5024063;28;20100;-75
2023/12/23 10:28:29;;;;;;;4.63;2.13;;;4.20;86.40;;;;;;5023935;28;20107;-75
2023/12/23 10:31:03;;;;;;;6.50;2.40;;;4.20;86.40;;;;;;5019861;28;20103;-75
2023/12/23 10:33:38;;;;;;;3.33;1.90;;;4.20;86.40;;;;;;5016486;28;20412;-75
2023/12/23 10:36:05;;;;;;;3.23;1.90;;;4.20;86.40;;;;;;5042408;28;20147;-75
2023/12/23 10:38:35;;;;;;;4.47;2.23;;;4.20;86.50;;;;;;5024372;28;20417;-75
2023/12/23 10:41:03;;;;;;;3.93;2.40;;;4.20;86.40;;;;;;5022937;28;20050;-76
2023/12/23 10:43:30;;;;;;;4.40;3.00;;;4.30;86.40;;;;;;5021661;28;20053;-76
2023/12/23 10:45:58;;;;;;;5.60;2.47;;;4.30;86.50;;;;;;5023807;28;20128;-75
2023/12/23 10:48:28;;;;;;;3.23;1.80;;;4.30;86.40;;;;;;5022398;28;20065;-75
2023/12/23 10:50:56;;;;;;;2.50;1.47;;;4.30;86.50;;;;;;5023851;28;20157;-76
2023/12/23 10:53:22;;;;;;;3.87;1.80;;;4.30;86.50;;;;;;5023646;28;20041;-75
2023/12/23 10:55:48;;;;;;;3.47;1.50;;;4.30;86.50;;;;;;5023936;28;20061;-75
2023/12/23 10:58:14;;;;;;;3.70;1.97;;;4.40;86.50;;;;;;5024241;28;20272;-76
2023/12/23 11:00:41;;;;;;;3.23;2.40;;;4.40;86.50;;;;;;5021985;28;20117;-76
2023/12/23 11:03:08;;;;;;;3.73;2.27;;;4.30;86.50;;;;;;5014003;28;20104;-75
2023/12/23 11:05:37;;;;;;;4.40;2.70;;;4.30;86.40;;;;;;5025820;28;20105;-76
2023/12/23 11:08:06;;;;;;;5.60;3.30;;;4.30;86.50;;;;;;5033903;28;20504;-76
2023/12/23 11:10:33;;;;;;;3.73;2.40;;;4.30;86.50;;;;;;5025835;28;20057;-76
2023/12/23 11:13:00;;;;;;;3.63;2.70;;;4.40;86.60;;;;;;5025120;28;20045;-75
2023/12/23 11:15:26;;;;;;;5.07;3.30;;;4.40;86.60;;;;;;5039842;28;20049;-75
2023/12/23 11:17:54;;;;;;;4.07;2.63;;;4.40;86.60;;;;;;5032280;28;20076;-76
2023/12/23 11:20:33;;;;;;;4.67;3.10;;;4.40;86.60;;;;;;5043154;28;20095;-75
2023/12/23 11:23:26;;;;;;;5.70;3.53;;;4.40;86.50;;;;;;5025098;28;20056;-75
2023/12/23 11:25:52;;;;;;;4.40;2.50;;;4.40;86.50;;;;;;5023309;28;20131;-76
2023/12/23 11:28:19;;;;;;;4.40;2.53;;;4.40;86.70;;;;;;5025831;28;20485;-76
2023/12/23 11:30:48;;;;;;;2.40;1.30;;;4.50;86.60;;;;;;5024300;28;20523;-76
2023/12/23 11:33:14;;;;;;;1.13;0.73;;;4.50;86.60;;;;;;5024228;28;20077;-76
2023/12/23 11:35:51;;;;;;;2.13;0.93;;;4.50;86.60;;;;;;5024992;28;20111;-76
2023/12/23 11:38:17;;;;;;;2.27;1.37;;;4.50;86.70;;;;;;5026433;28;20045;-76
2023/12/23 11:40:44;;;;;;;3.63;1.57;;;4.50;86.60;;;;;;5024651;28;20057;-76
2023/12/23 11:43:10;;;;;;;2.37;1.10;;;4.60;86.60;;;;;;5023000;28;20128;-76
2023/12/23 11:45:39;;;;;;;3.13;1.00;;;4.60;86.70;;;;;;5025436;28;20181;-75
2023/12/23 11:48:07;;;;;;;2.00;1.13;;;4.60;86.60;;;;;;5022332;28;20054;-76
2023/12/23 11:50:33;;;;;;;1.27;0.80;;;4.70;86.60;;;;;;5015328;28;20053;-75
2023/12/23 11:52:59;;;;;;;1.20;0.40;;;4.70;86.60;;;;;;5015866;28;20096;-75
2023/12/23 11:55:25;;;;;;;0.70;0.33;;;4.60;86.60;;;;;;5022972;28;20096;-75
2023/12/23 11:57:51;;;;;;;1.00;0.50;;;4.60;86.60;;;;;;5016406;28;20068;-75
2023/12/23 12:00:18;;;;;;;1.10;0.60;;;4.60;86.50;;;;;;5018892;28;20161;-75
2023/12/23 12:02:44;;;;;;;1.40;0.97;;;4.60;86.60;;;;;;5023553;28;20124;-75
2023/12/23 12:05:10;;;;;;;0.93;0.50;;;4.70;86.60;;;;;;5024505;28;20073;-75
2023/12/23 12:07:37;;;;;;;1.67;1.13;;;4.70;86.50;;;;;;5022506;28;20077;-76
2023/12/23 12:10:02;;;;;;;1.50;0.90;;;4.70;86.50;;;;;;5024348;28;20212;-75
2023/12/23 12:12:28;;;;;;;1.50;0.60;;;4.70;86.60;;;;;;5024443;28;20045;-75
2023/12/23 12:14:54;;;;;;;2.07;0.90;;;4.70;86.60;;;;;;5025086;28;20045;-76
2023/12/23 12:17:20;;;;;;;2.00;1.00;;;4.70;86.50;;;;;;5024393;28;20137;-76
2023/12/23 12:19:45;;;;;;;2.33;0.90;;;4.70;86.60;;;;;;5024491;28;20057;-76
2023/12/23 12:22:11;;;;;;;1.13;0.83;;;4.70;86.70;;;;;;5021895;28;20066;-76
2023/12/23 12:24:37;;;;;;;2.03;1.03;;;4.70;86.60;;;;;;5024083;28;20262;-76
2023/12/23 12:27:04;;;;;;;3.23;2.10;;;4.70;86.70;;;;;;5024405;28;20041;-76
2023/12/23 12:29:29;;;;;;;3.30;2.00;;;4.80;86.70;;;;;;5023135;28;20045;-76
2023/12/23 12:31:58;;;;;;;6.47;2.77;;;4.80;86.70;;;;;;5023748;28;20067;-76
2023/12/23 12:34:25;;;;;;;3.83;2.90;;;4.80;86.70;;;;;;5021804;28;20567;-76
2023/12/23 12:36:51;;;;;;;3.90;2.53;;;4.90;86.80;;;;;;5023843;28;20037;-77
2023/12/23 12:39:21;;;;;;;5.43;3.17;;;4.90;86.80;;;;;;5024043;28;20448;-77
2023/12/23 12:41:50;;;;;;;7.53;4.50;;;4.90;86.80;;;;;;5021497;28;20042;-76
2023/12/23 12:44:16;;;;;;;4.43;2.97;;;4.90;86.80;;;;;;5022138;28;20048;-76
2023/12/23 12:46:44;;;;;;;9.20;4.83;;;4.90;86.80;;;;;;5024873;28;20372;-76